sensor_id;sensor_type;location;lat;lon;timestamp;temperature;humidity
25024;DHT22;13033;50.936;5.334;2024-03-02T00:02:08;8.80;1.00
25024;DHT22;13033;50.936;5.334;2024-03-02T00:04:34;8.50;17.30
25024;DHT22;13033;50.936;5.334;2024-03-02T00:06:59;8.40;24.10
25024;DHT22;13033;50.936;5.334;2024-03-02T00:09:25;8.50;26.30
25024;DHT22;13033;50.936;5.334;2024-03-02T00:11:50;8.40;27.40
25024;DHT22;13033;50.936;5.334;2024-03-02T00:14:17;8.30;30.00
25024;DHT22;13033;50.936;5.334;2024-03-02T00:16:42;8.30;37.90
25024;DHT22;13033;50.936;5.334;2024-03-02T00:19:09;8.10;52.40
25024;DHT22;13033;50.936;5.334;2024-03-02T00:21:35;8.20;46.70
25024;DHT22;13033;50.936;5.334;2024-03-02T00:26:45;8.30;36.60
25024;DHT22;13033;50.936;5.334;2024-03-02T00:29:14;8.30;27.50
25024;DHT22;13033;50.936;5.334;2024-03-02T00:31:41;8.20;38.80
25024;DHT22;13033;50.936;5.334;2024-03-02T00:34:06;8.20;43.30
25024;DHT22;13033;50.936;5.334;2024-03-02T00:36:32;8.30;32.50
25024;DHT22;13033;50.936;5.334;2024-03-02T00:38:58;8.30;28.90
25024;DHT22;13033;50.936;5.334;2024-03-02T00:41:29;8.20;36.10
25024;DHT22;13033;50.936;5.334;2024-03-02T00:46:29;8.30;27.70
25024;DHT22;13033;50.936;5.334;2024-03-02T00:49:00;8.30;31.80
25024;DHT22;13033;50.936;5.334;2024-03-02T00:51:31;8.30;32.90
25024;DHT22;13033;50.936;5.334;2024-03-02T00:54:01;8.30;26.20
25024;DHT22;13033;50.936;5.334;2024-03-02T00:56:30;8.30;28.30
25024;DHT22;13033;50.936;5.334;2024-03-02T00:58:55;8.40;16.10
25024;DHT22;13033;50.936;5.334;2024-03-02T01:01:21;8.40;16.20
25024;DHT22;13033;50.936;5.334;2024-03-02T01:03:48;8.30;15.60
25024;DHT22;13033;50.936;5.334;2024-03-02T01:06:15;8.40;13.70
25024;DHT22;13033;50.936;5.334;2024-03-02T01:08:41;8.30;11.10
25024;DHT22;13033;50.936;5.334;2024-03-02T01:11:07;8.40;11.00
25024;DHT22;13033;50.936;5.334;2024-03-02T01:13:33;8.40;6.80
25024;DHT22;13033;50.936;5.334;2024-03-02T01:15:59;8.40;1.40
25024;DHT22;13033;50.936;5.334;2024-03-02T01:18:25;8.40;1.00
25024;DHT22;13033;50.936;5.334;2024-03-02T01:20:51;8.50;1.00
25024;DHT22;13033;50.936;5.334;2024-03-02T01:23:23;8.50;1.00
25024;DHT22;13033;50.936;5.334;2024-03-02T01:25:50;8.60;1.00
25024;DHT22;13033;50.936;5.334;2024-03-02T01:28:16;8.50;1.00
25024;DHT22;13033;50.936;5.334;2024-03-02T01:30:42;8.50;1.00
25024;DHT22;13033;50.936;5.334;2024-03-02T01:33:08;8.50;1.00
25024;DHT22;13033;50.936;5.334;2024-03-02T01:35:33;8.50;1.00
25024;DHT22;13033;50.936;5.334;2024-03-02T01:38:00;8.40;1.00
25024;DHT22;13033;50.936;5.334;2024-03-02T01:40:26;8.50;1.00
25024;DHT22;13033;50.936;5.334;2024-03-02T01:42:53;8.50;1.00
25024;DHT22;13033;50.936;5.334;2024-03-02T01:45:23;8.50;1.00
25024;DHT22;13033;50.936;5.334;2024-03-02T01:47:49;8.50;1.00
25024;DHT22;13033;50.936;5.334;2024-03-02T01:50:15;8.40;1.00
25024;DHT22;13033;50.936;5.334;2024-03-02T01:52:41;8.40;1.00
25024;DHT22;13033;50.936;5.334;2024-03-02T01:55:07;8.50;1.00
25024;DHT22;13033;50.936;5.334;2024-03-02T01:57:34;8.60;1.00
25024;DHT22;13033;50.936;5.334;2024-03-02T02:00:00;8.70;1.00
25024;DHT22;13033;50.936;5.334;2024-03-02T02:02:26;8.50;1.00
25024;DHT22;13033;50.936;5.334;2024-03-02T02:04:52;8.50;1.00
25024;DHT22;13033;50.936;5.334;2024-03-02T02:07:17;8.50;1.00
25024;DHT22;13033;50.936;5.334;2024-03-02T02:09:43;8.50;1.00
25024;DHT22;13033;50.936;5.334;2024-03-02T02:12:09;8.60;1.00
25024;DHT22;13033;50.936;5.334;2024-03-02T02:14:36;8.70;1.00
25024;DHT22;13033;50.936;5.334;2024-03-02T02:17:01;8.50;1.00
25024;DHT22;13033;50.936;5.334;2024-03-02T02:19:27;8.60;1.00
25024;DHT22;13033;50.936;5.334;2024-03-02T02:21:53;8.50;1.00
25024;DHT22;13033;50.936;5.334;2024-03-02T02:24:18;8.50;1.00
25024;DHT22;13033;50.936;5.334;2024-03-02T02:26:44;8.40;1.00
25024;DHT22;13033;50.936;5.334;2024-03-02T02:29:10;8.20;1.00
25024;DHT22;13033;50.936;5.334;2024-03-02T02:31:41;8.20;1.00
25024;DHT22;13033;50.936;5.334;2024-03-02T02:34:07;8.20;1.00
25024;DHT22;13033;50.936;5.334;2024-03-02T02:36:37;8.20;1.00
25024;DHT22;13033;50.936;5.334;2024-03-02T02:39:04;8.20;1.00
25024;DHT22;13033;50.936;5.334;2024-03-02T02:41:32;8.30;1.00
25024;DHT22;13033;50.936;5.334;2024-03-02T02:43:58;8.20;1.00
25024;DHT22;13033;50.936;5.334;2024-03-02T02:46:23;8.20;1.00
25024;DHT22;13033;50.936;5.334;2024-03-02T02:48:49;8.10;1.00
25024;DHT22;13033;50.936;5.334;2024-03-02T02:51:17;8.10;1.00
25024;DHT22;13033;50.936;5.334;2024-03-02T02:53:42;8.00;1.00
25024;DHT22;13033;50.936;5.334;2024-03-02T02:56:08;7.90;1.00
25024;DHT22;13033;50.936;5.334;2024-03-02T02:58:34;7.90;1.00
25024;DHT22;13033;50.936;5.334;2024-03-02T03:00:59;8.00;1.00
25024;DHT22;13033;50.936;5.334;2024-03-02T03:03:25;7.90;1.00
25024;DHT22;13033;50.936;5.334;2024-03-02T03:05:51;7.80;1.00
25024;DHT22;13033;50.936;5.334;2024-03-02T03:08:16;7.70;1.00
25024;DHT22;13033;50.936;5.334;2024-03-02T03:10:42;7.70;1.00
25024;DHT22;13033;50.936;5.334;2024-03-02T03:13:08;7.90;1.00
25024;DHT22;13033;50.936;5.334;2024-03-02T03:15:37;7.90;1.00
25024;DHT22;13033;50.936;5.334;2024-03-02T03:18:04;7.90;1.00
25024;DHT22;13033;50.936;5.334;2024-03-02T03:20:30;7.90;1.00
25024;DHT22;13033;50.936;5.334;2024-03-02T03:22:56;7.80;1.00
25024;DHT22;13033;50.936;5.334;2024-03-02T03:25:22;7.80;1.00
25024;DHT22;13033;50.936;5.334;2024-03-02T03:27:48;7.80;1.00
25024;DHT22;13033;50.936;5.334;2024-03-02T03:30:14;7.80;1.00
25024;DHT22;13033;50.936;5.334;2024-03-02T03:32:40;7.90;1.00
25024;DHT22;13033;50.936;5.334;2024-03-02T03:35:06;8.00;1.00
25024;DHT22;13033;50.936;5.334;2024-03-02T03:37:32;7.90;1.00
25024;DHT22;13033;50.936;5.334;2024-03-02T03:40:04;7.70;1.00
25024;DHT22;13033;50.936;5.334;2024-03-02T03:42:37;7.70;1.00
25024;DHT22;13033;50.936;5.334;2024-03-02T03:45:03;7.50;1.00
25024;DHT22;13033;50.936;5.334;2024-03-02T03:47:31;7.50;1.50
25024;DHT22;13033;50.936;5.334;2024-03-02T03:49:57;7.60;1.80
25024;DHT22;13033;50.936;5.334;2024-03-02T03:52:23;7.70;1.00
25024;DHT22;13033;50.936;5.334;2024-03-02T03:54:49;7.70;1.00
25024;DHT22;13033;50.936;5.334;2024-03-02T03:57:14;7.90;1.00
25024;DHT22;13033;50.936;5.334;2024-03-02T03:59:40;7.90;1.00
25024;DHT22;13033;50.936;5.334;2024-03-02T04:02:06;8.00;1.00
25024;DHT22;13033;50.936;5.334;2024-03-02T04:04:32;8.00;1.00
25024;DHT22;13033;50.936;5.334;2024-03-02T04:06:59;8.00;1.00
25024;DHT22;13033;50.936;5.334;2024-03-02T04:09:24;7.80;1.00
25024;DHT22;13033;50.936;5.334;2024-03-02T04:11:51;7.90;1.00
25024;DHT22;13033;50.936;5.334;2024-03-02T04:14:17;8.10;1.00
25024;DHT22;13033;50.936;5.334;2024-03-02T04:16:42;8.00;1.00
25024;DHT22;13033;50.936;5.334;2024-03-02T04:19:08;7.90;1.00
25024;DHT22;13033;50.936;5.334;2024-03-02T04:21:34;7.80;1.00
25024;DHT22;13033;50.936;5.334;2024-03-02T04:23:59;7.70;1.00
25024;DHT22;13033;50.936;5.334;2024-03-02T04:26:25;7.70;1.00
25024;DHT22;13033;50.936;5.334;2024-03-02T04:28:52;7.80;1.00
25024;DHT22;13033;50.936;5.334;2024-03-02T04:31:18;7.60;1.00
25024;DHT22;13033;50.936;5.334;2024-03-02T04:33:44;7.60;1.00
25024;DHT22;13033;50.936;5.334;2024-03-02T04:36:09;7.50;1.00
25024;DHT22;13033;50.936;5.334;2024-03-02T04:38:36;7.50;1.00
25024;DHT22;13033;50.936;5.334;2024-03-02T04:41:01;7.40;1.00
25024;DHT22;13033;50.936;5.334;2024-03-02T04:43:27;7.40;1.00
25024;DHT22;13033;50.936;5.334;2024-03-02T04:45:53;7.50;1.00
25024;DHT22;13033;50.936;5.334;2024-03-02T04:48:18;7.60;1.00
25024;DHT22;13033;50.936;5.334;2024-03-02T04:50:44;7.70;1.00
25024;DHT22;13033;50.936;5.334;2024-03-02T04:53:10;7.70;1.00
25024;DHT22;13033;50.936;5.334;2024-03-02T04:55:36;7.50;1.00
25024;DHT22;13033;50.936;5.334;2024-03-02T04:58:04;7.50;1.00
25024;DHT22;13033;50.936;5.334;2024-03-02T05:00:30;7.30;1.00
25024;DHT22;13033;50.936;5.334;2024-03-02T05:02:56;7.40;1.00
25024;DHT22;13033;50.936;5.334;2024-03-02T05:05:22;7.40;1.00
25024;DHT22;13033;50.936;5.334;2024-03-02T05:07:47;7.40;1.00
25024;DHT22;13033;50.936;5.334;2024-03-02T05:10:13;7.20;1.00
25024;DHT22;13033;50.936;5.334;2024-03-02T05:12:41;7.30;1.00
25024;DHT22;13033;50.936;5.334;2024-03-02T05:15:13;7.20;3.50
25024;DHT22;13033;50.936;5.334;2024-03-02T05:17:40;7.20;2.40
25024;DHT22;13033;50.936;5.334;2024-03-02T05:20:07;7.20;1.00
25024;DHT22;13033;50.936;5.334;2024-03-02T05:22:36;7.20;1.10
25024;DHT22;13033;50.936;5.334;2024-03-02T05:25:03;7.20;1.00
25024;DHT22;13033;50.936;5.334;2024-03-02T05:27:29;7.30;1.00
25024;DHT22;13033;50.936;5.334;2024-03-02T05:29:55;7.20;1.00
25024;DHT22;13033;50.936;5.334;2024-03-02T05:32:20;7.10;1.00
25024;DHT22;13033;50.936;5.334;2024-03-02T05:34:46;7.00;1.00
25024;DHT22;13033;50.936;5.334;2024-03-02T05:37:12;7.00;1.60
25024;DHT22;13033;50.936;5.334;2024-03-02T05:39:38;7.10;1.00
25024;DHT22;13033;50.936;5.334;2024-03-02T05:42:03;7.00;1.00
25024;DHT22;13033;50.936;5.334;2024-03-02T05:44:29;7.00;2.00
25024;DHT22;13033;50.936;5.334;2024-03-02T05:46:55;7.10;1.00
25024;DHT22;13033;50.936;5.334;2024-03-02T05:49:21;7.20;1.00
25024;DHT22;13033;50.936;5.334;2024-03-02T05:51:47;7.10;1.00
25024;DHT22;13033;50.936;5.334;2024-03-02T05:54:13;7.10;3.80
25024;DHT22;13033;50.936;5.334;2024-03-02T05:56:38;7.00;5.30
25024;DHT22;13033;50.936;5.334;2024-03-02T05:59:04;7.00;9.60
25024;DHT22;13033;50.936;5.334;2024-03-02T06:01:39;7.10;7.20
25024;DHT22;13033;50.936;5.334;2024-03-02T06:04:06;7.20;1.00
25024;DHT22;13033;50.936;5.334;2024-03-02T06:06:32;7.10;1.00
25024;DHT22;13033;50.936;5.334;2024-03-02T06:09:02;7.20;1.00
25024;DHT22;13033;50.936;5.334;2024-03-02T06:11:36;7.30;1.00
25024;DHT22;13033;50.936;5.334;2024-03-02T06:14:02;7.10;1.00
25024;DHT22;13033;50.936;5.334;2024-03-02T06:16:28;7.10;1.00
25024;DHT22;13033;50.936;5.334;2024-03-02T06:18:53;7.00;4.70
25024;DHT22;13033;50.936;5.334;2024-03-02T06:21:20;7.10;2.00
25024;DHT22;13033;50.936;5.334;2024-03-02T06:23:46;7.00;3.30
25024;DHT22;13033;50.936;5.334;2024-03-02T06:26:12;7.10;4.50
25024;DHT22;13033;50.936;5.334;2024-03-02T06:28:38;7.00;5.20
25024;DHT22;13033;50.936;5.334;2024-03-02T06:31:04;7.00;2.00
25024;DHT22;13033;50.936;5.334;2024-03-02T06:33:29;7.00;5.80
25024;DHT22;13033;50.936;5.334;2024-03-02T06:35:55;7.10;1.60
25024;DHT22;13033;50.936;5.334;2024-03-02T06:38:21;7.10;1.00
25024;DHT22;13033;50.936;5.334;2024-03-02T06:40:46;7.10;1.00
25024;DHT22;13033;50.936;5.334;2024-03-02T06:43:12;7.20;1.00
25024;DHT22;13033;50.936;5.334;2024-03-02T06:45:38;7.20;1.00
25024;DHT22;13033;50.936;5.334;2024-03-02T06:48:04;7.20;1.00
25024;DHT22;13033;50.936;5.334;2024-03-02T06:50:29;7.30;1.00
25024;DHT22;13033;50.936;5.334;2024-03-02T06:52:55;7.30;1.00
25024;DHT22;13033;50.936;5.334;2024-03-02T06:55:21;7.30;1.00
25024;DHT22;13033;50.936;5.334;2024-03-02T06:57:47;7.40;1.00
25024;DHT22;13033;50.936;5.334;2024-03-02T07:00:13;7.30;1.00
25024;DHT22;13033;50.936;5.334;2024-03-02T07:02:39;7.20;1.00
25024;DHT22;13033;50.936;5.334;2024-03-02T07:05:08;7.30;1.00
25024;DHT22;13033;50.936;5.334;2024-03-02T07:07:34;7.30;1.00
25024;DHT22;13033;50.936;5.334;2024-03-02T07:10:01;7.30;1.00
25024;DHT22;13033;50.936;5.334;2024-03-02T07:12:26;7.30;1.00
25024;DHT22;13033;50.936;5.334;2024-03-02T07:14:52;7.40;1.00
25024;DHT22;13033;50.936;5.334;2024-03-02T07:17:36;7.40;1.00
25024;DHT22;13033;50.936;5.334;2024-03-02T07:20:02;7.30;1.00
25024;DHT22;13033;50.936;5.334;2024-03-02T07:22:29;7.50;1.00
25024;DHT22;13033;50.936;5.334;2024-03-02T07:24:55;7.50;1.00
25024;DHT22;13033;50.936;5.334;2024-03-02T07:27:21;7.50;1.00
25024;DHT22;13033;50.936;5.334;2024-03-02T07:29:47;7.60;1.00
25024;DHT22;13033;50.936;5.334;2024-03-02T07:32:12;7.60;1.00
25024;DHT22;13033;50.936;5.334;2024-03-02T07:34:38;7.50;1.00
25024;DHT22;13033;50.936;5.334;2024-03-02T07:37:04;7.60;1.00
25024;DHT22;13033;50.936;5.334;2024-03-02T07:39:30;7.50;1.00
25024;DHT22;13033;50.936;5.334;2024-03-02T07:41:56;7.60;1.00
25024;DHT22;13033;50.936;5.334;2024-03-02T07:44:22;7.70;1.00
25024;DHT22;13033;50.936;5.334;2024-03-02T07:46:48;7.70;1.00
25024;DHT22;13033;50.936;5.334;2024-03-02T07:49:20;7.70;1.00
25024;DHT22;13033;50.936;5.334;2024-03-02T07:51:46;7.90;1.00
25024;DHT22;13033;50.936;5.334;2024-03-02T07:54:12;8.00;1.00
25024;DHT22;13033;50.936;5.334;2024-03-02T07:56:37;8.20;1.00
25024;DHT22;13033;50.936;5.334;2024-03-02T07:59:03;8.20;1.00
25024;DHT22;13033;50.936;5.334;2024-03-02T08:01:30;8.30;1.00
25024;DHT22;13033;50.936;5.334;2024-03-02T08:04:00;8.50;1.00
25024;DHT22;13033;50.936;5.334;2024-03-02T08:06:27;8.70;1.00
25024;DHT22;13033;50.936;5.334;2024-03-02T08:08:59;8.70;1.00
25024;DHT22;13033;50.936;5.334;2024-03-02T08:11:26;8.60;1.00
25024;DHT22;13033;50.936;5.334;2024-03-02T08:13:56;8.60;1.00
25024;DHT22;13033;50.936;5.334;2024-03-02T08:16:25;8.70;1.00
25024;DHT22;13033;50.936;5.334;2024-03-02T08:18:51;8.80;1.00
25024;DHT22;13033;50.936;5.334;2024-03-02T08:21:17;9.00;1.00
25024;DHT22;13033;50.936;5.334;2024-03-02T08:23:43;9.20;1.00
25024;DHT22;13033;50.936;5.334;2024-03-02T08:26:10;9.20;1.00
25024;DHT22;13033;50.936;5.334;2024-03-02T08:28:36;9.00;1.00
25024;DHT22;13033;50.936;5.334;2024-03-02T08:31:08;9.10;1.00
25024;DHT22;13033;50.936;5.334;2024-03-02T08:33:34;9.20;1.00
25024;DHT22;13033;50.936;5.334;2024-03-02T08:36:00;9.00;1.00
25024;DHT22;13033;50.936;5.334;2024-03-02T08:38:26;9.00;1.00
25024;DHT22;13033;50.936;5.334;2024-03-02T08:40:52;9.00;1.00
25024;DHT22;13033;50.936;5.334;2024-03-02T08:43:17;9.00;1.00
25024;DHT22;13033;50.936;5.334;2024-03-02T08:45:43;9.10;1.00
25024;DHT22;13033;50.936;5.334;2024-03-02T08:48:09;9.20;1.00
25024;DHT22;13033;50.936;5.334;2024-03-02T08:50:37;9.20;1.00
25024;DHT22;13033;50.936;5.334;2024-03-02T08:53:04;9.20;1.00
25024;DHT22;13033;50.936;5.334;2024-03-02T08:55:30;9.20;1.00
25024;DHT22;13033;50.936;5.334;2024-03-02T08:57:56;9.30;1.00
25024;DHT22;13033;50.936;5.334;2024-03-02T09:00:22;9.20;1.00
25024;DHT22;13033;50.936;5.334;2024-03-02T09:02:48;9.20;1.00
25024;DHT22;13033;50.936;5.334;2024-03-02T09:05:14;9.40;1.00
25024;DHT22;13033;50.936;5.334;2024-03-02T09:07:40;9.50;1.00
25024;DHT22;13033;50.936;5.334;2024-03-02T09:10:07;9.50;1.00
25024;DHT22;13033;50.936;5.334;2024-03-02T09:12:33;9.70;1.00
25024;DHT22;13033;50.936;5.334;2024-03-02T09:15:00;9.70;1.00
25024;DHT22;13033;50.936;5.334;2024-03-02T09:17:26;9.90;1.00
25024;DHT22;13033;50.936;5.334;2024-03-02T09:19:52;9.80;1.00
25024;DHT22;13033;50.936;5.334;2024-03-02T09:22:20;9.80;1.00
25024;DHT22;13033;50.936;5.334;2024-03-02T09:24:46;9.90;1.00
25024;DHT22;13033;50.936;5.334;2024-03-02T09:27:11;10.10;99.90
25024;DHT22;13033;50.936;5.334;2024-03-02T09:29:37;10.10;99.90
25024;DHT22;13033;50.936;5.334;2024-03-02T09:32:05;10.20;99.90
25024;DHT22;13033;50.936;5.334;2024-03-02T09:34:31;10.30;99.90
25024;DHT22;13033;50.936;5.334;2024-03-02T09:36:58;10.40;99.90
25024;DHT22;13033;50.936;5.334;2024-03-02T09:39:24;10.30;99.90
25024;DHT22;13033;50.936;5.334;2024-03-02T09:41:51;10.50;99.90
25024;DHT22;13033;50.936;5.334;2024-03-02T09:44:17;10.50;99.90
25024;DHT22;13033;50.936;5.334;2024-03-02T09:46:43;10.50;99.90
25024;DHT22;13033;50.936;5.334;2024-03-02T09:49:10;10.60;99.90
25024;DHT22;13033;50.936;5.334;2024-03-02T09:51:37;10.60;99.90
25024;DHT22;13033;50.936;5.334;2024-03-02T09:54:03;10.90;99.90
25024;DHT22;13033;50.936;5.334;2024-03-02T09:56:29;11.00;99.90
25024;DHT22;13033;50.936;5.334;2024-03-02T09:58:54;10.80;99.90
25024;DHT22;13033;50.936;5.334;2024-03-02T10:01:20;10.70;99.90
25024;DHT22;13033;50.936;5.334;2024-03-02T10:03:47;10.80;99.90
25024;DHT22;13033;50.936;5.334;2024-03-02T10:06:25;11.10;99.90
25024;DHT22;13033;50.936;5.334;2024-03-02T10:08:51;11.10;99.90
25024;DHT22;13033;50.936;5.334;2024-03-02T10:11:29;10.80;99.90
25024;DHT22;13033;50.936;5.334;2024-03-02T10:14:12;11.00;99.90
25024;DHT22;13033;50.936;5.334;2024-03-02T10:16:42;11.10;99.90
25024;DHT22;13033;50.936;5.334;2024-03-02T10:19:22;11.00;99.90
25024;DHT22;13033;50.936;5.334;2024-03-02T10:21:49;11.00;97.70
25024;DHT22;13033;50.936;5.334;2024-03-02T10:24:16;11.00;59.30
25024;DHT22;13033;50.936;5.334;2024-03-02T10:26:42;11.00;31.30
25024;DHT22;13033;50.936;5.334;2024-03-02T10:29:11;11.20;5.30
25024;DHT22;13033;50.936;5.334;2024-03-02T10:31:43;11.50;1.00
25024;DHT22;13033;50.936;5.334;2024-03-02T10:34:10;11.70;1.00
25024;DHT22;13033;50.936;5.334;2024-03-02T10:36:36;11.70;1.00
25024;DHT22;13033;50.936;5.334;2024-03-02T10:39:06;11.70;99.90
25024;DHT22;13033;50.936;5.334;2024-03-02T10:41:34;11.70;99.90
25024;DHT22;13033;50.936;5.334;2024-03-02T10:44:02;11.80;99.90
25024;DHT22;13033;50.936;5.334;2024-03-02T10:46:30;11.70;99.90
25024;DHT22;13033;50.936;5.334;2024-03-02T10:49:00;11.90;99.90
25024;DHT22;13033;50.936;5.334;2024-03-02T10:51:27;12.10;1.00
25024;DHT22;13033;50.936;5.334;2024-03-02T10:54:00;12.10;1.00
25024;DHT22;13033;50.936;5.334;2024-03-02T10:56:41;12.10;1.00
25024;DHT22;13033;50.936;5.334;2024-03-02T11:01:48;12.10;99.90
25024;DHT22;13033;50.936;5.334;2024-03-02T11:04:18;12.10;37.60
25024;DHT22;13033;50.936;5.334;2024-03-02T11:06:48;12.20;1.00
25024;DHT22;13033;50.936;5.334;2024-03-02T11:09:14;12.40;1.00
25024;DHT22;13033;50.936;5.334;2024-03-02T11:11:43;12.30;1.00
25024;DHT22;13033;50.936;5.334;2024-03-02T11:14:16;12.40;17.30
25024;DHT22;13033;50.936;5.334;2024-03-02T11:16:42;12.30;1.00
25024;DHT22;13033;50.936;5.334;2024-03-02T11:19:11;12.40;1.00
25024;DHT22;13033;50.936;5.334;2024-03-02T11:21:37;12.70;99.90
25024;DHT22;13033;50.936;5.334;2024-03-02T11:26:53;13.20;99.90
25024;DHT22;13033;50.936;5.334;2024-03-02T11:32:05;13.00;1.00
25024;DHT22;13033;50.936;5.334;2024-03-02T11:34:36;12.80;1.00
25024;DHT22;13033;50.936;5.334;2024-03-02T11:37:02;13.00;1.00
25024;DHT22;13033;50.936;5.334;2024-03-02T11:39:29;13.30;99.90
25024;DHT22;13033;50.936;5.334;2024-03-02T11:41:55;13.30;99.90
25024;DHT22;13033;50.936;5.334;2024-03-02T11:44:24;13.20;99.90
25024;DHT22;13033;50.936;5.334;2024-03-02T11:47:00;13.20;99.90
25024;DHT22;13033;50.936;5.334;2024-03-02T11:49:42;13.10;92.90
25024;DHT22;13033;50.936;5.334;2024-03-02T11:52:10;13.00;41.40
25024;DHT22;13033;50.936;5.334;2024-03-02T11:54:38;13.00;1.00
25024;DHT22;13033;50.936;5.334;2024-03-02T11:57:13;13.20;8.30
25024;DHT22;13033;50.936;5.334;2024-03-02T11:59:39;13.30;1.00
25024;DHT22;13033;50.936;5.334;2024-03-02T12:02:06;13.30;1.00
25024;DHT22;13033;50.936;5.334;2024-03-02T12:04:32;13.30;1.00
25024;DHT22;13033;50.936;5.334;2024-03-02T12:07:01;13.40;1.00
25024;DHT22;13033;50.936;5.334;2024-03-02T12:09:27;13.60;1.00
25024;DHT22;13033;50.936;5.334;2024-03-02T12:12:10;13.70;1.00
25024;DHT22;13033;50.936;5.334;2024-03-02T12:14:38;13.50;1.00
25024;DHT22;13033;50.936;5.334;2024-03-02T12:17:05;13.60;99.90
25024;DHT22;13033;50.936;5.334;2024-03-02T12:19:32;13.50;99.90
25024;DHT22;13033;50.936;5.334;2024-03-02T12:21:59;13.30;99.90
25024;DHT22;13033;50.936;5.334;2024-03-02T12:24:28;13.40;99.90
25024;DHT22;13033;50.936;5.334;2024-03-02T12:26:54;13.60;99.90
25024;DHT22;13033;50.936;5.334;2024-03-02T12:29:20;14.00;99.90
25024;DHT22;13033;50.936;5.334;2024-03-02T12:31:51;14.20;99.90
25024;DHT22;13033;50.936;5.334;2024-03-02T12:34:18;14.10;99.90
25024;DHT22;13033;50.936;5.334;2024-03-02T12:36:44;14.30;99.90
25024;DHT22;13033;50.936;5.334;2024-03-02T12:39:13;14.60;99.90
25024;DHT22;13033;50.936;5.334;2024-03-02T12:41:39;14.60;95.90
25024;DHT22;13033;50.936;5.334;2024-03-02T12:44:05;14.40;31.60
25024;DHT22;13033;50.936;5.334;2024-03-02T12:46:32;14.40;49.50
25024;DHT22;13033;50.936;5.334;2024-03-02T12:48:58;14.50;21.20
25024;DHT22;13033;50.936;5.334;2024-03-02T12:51:24;14.60;41.40
25024;DHT22;13033;50.936;5.334;2024-03-02T12:53:57;14.80;1.00
25024;DHT22;13033;50.936;5.334;2024-03-02T12:56:24;14.90;1.00
25024;DHT22;13033;50.936;5.334;2024-03-02T12:58:56;14.70;1.00
25024;DHT22;13033;50.936;5.334;2024-03-02T13:01:23;14.40;1.00
25024;DHT22;13033;50.936;5.334;2024-03-02T13:03:49;14.40;1.00
25024;DHT22;13033;50.936;5.334;2024-03-02T13:06:18;14.30;1.00
25024;DHT22;13033;50.936;5.334;2024-03-02T13:08:46;14.40;1.00
25024;DHT22;13033;50.936;5.334;2024-03-02T13:11:14;14.40;1.00
25024;DHT22;13033;50.936;5.334;2024-03-02T13:13:41;14.40;1.00
25024;DHT22;13033;50.936;5.334;2024-03-02T13:16:10;14.70;1.00
25024;DHT22;13033;50.936;5.334;2024-03-02T13:18:38;14.80;1.00
25024;DHT22;13033;50.936;5.334;2024-03-02T13:21:04;14.80;1.00
25024;DHT22;13033;50.936;5.334;2024-03-02T13:23:29;15.00;1.00
25024;DHT22;13033;50.936;5.334;2024-03-02T13:25:58;15.00;1.00
25024;DHT22;13033;50.936;5.334;2024-03-02T13:28:25;15.00;1.00
25024;DHT22;13033;50.936;5.334;2024-03-02T13:30:51;15.10;1.00
25024;DHT22;13033;50.936;5.334;2024-03-02T13:33:17;15.20;1.00
25024;DHT22;13033;50.936;5.334;2024-03-02T13:35:51;15.40;1.00
25024;DHT22;13033;50.936;5.334;2024-03-02T13:38:20;15.40;99.90
25024;DHT22;13033;50.936;5.334;2024-03-02T13:40:48;15.60;1.00
25024;DHT22;13033;50.936;5.334;2024-03-02T13:43:17;15.80;99.90
25024;DHT22;13033;50.936;5.334;2024-03-02T13:45:43;15.70;99.90
25024;DHT22;13033;50.936;5.334;2024-03-02T13:48:09;15.50;99.90
25024;DHT22;13033;50.936;5.334;2024-03-02T13:50:35;15.40;99.90
25024;DHT22;13033;50.936;5.334;2024-03-02T13:53:02;15.20;99.90
25024;DHT22;13033;50.936;5.334;2024-03-02T13:55:28;15.30;99.90
25024;DHT22;13033;50.936;5.334;2024-03-02T13:57:54;15.20;99.90
25024;DHT22;13033;50.936;5.334;2024-03-02T14:00:20;15.30;99.90
25024;DHT22;13033;50.936;5.334;2024-03-02T14:02:46;15.20;99.90
25024;DHT22;13033;50.936;5.334;2024-03-02T14:05:15;15.20;99.90
25024;DHT22;13033;50.936;5.334;2024-03-02T14:07:41;14.90;99.90
25024;DHT22;13033;50.936;5.334;2024-03-02T14:10:07;15.10;99.90
25024;DHT22;13033;50.936;5.334;2024-03-02T14:12:33;15.20;99.90
25024;DHT22;13033;50.936;5.334;2024-03-02T14:14:58;15.30;99.90
25024;DHT22;13033;50.936;5.334;2024-03-02T14:17:25;15.50;99.90
25024;DHT22;13033;50.936;5.334;2024-03-02T14:19:51;15.50;99.90
25024;DHT22;13033;50.936;5.334;2024-03-02T14:22:21;15.50;99.90
25024;DHT22;13033;50.936;5.334;2024-03-02T14:24:47;15.30;99.90
25024;DHT22;13033;50.936;5.334;2024-03-02T14:27:14;15.40;99.90
25024;DHT22;13033;50.936;5.334;2024-03-02T14:29:43;15.30;99.90
25024;DHT22;13033;50.936;5.334;2024-03-02T14:32:09;15.00;99.90
25024;DHT22;13033;50.936;5.334;2024-03-02T14:34:34;15.00;99.90
25024;DHT22;13033;50.936;5.334;2024-03-02T14:37:00;15.00;99.90
25024;DHT22;13033;50.936;5.334;2024-03-02T14:39:26;15.00;99.90
25024;DHT22;13033;50.936;5.334;2024-03-02T14:41:52;15.20;1.00
25024;DHT22;13033;50.936;5.334;2024-03-02T14:44:18;15.40;1.00
25024;DHT22;13033;50.936;5.334;2024-03-02T14:46:47;15.40;99.90
25024;DHT22;13033;50.936;5.334;2024-03-02T14:49:13;15.30;99.90
25024;DHT22;13033;50.936;5.334;2024-03-02T14:51:39;15.00;99.90
25024;DHT22;13033;50.936;5.334;2024-03-02T14:54:04;15.00;99.90
25024;DHT22;13033;50.936;5.334;2024-03-02T14:56:30;14.80;1.00
25024;DHT22;13033;50.936;5.334;2024-03-02T14:58:56;14.80;1.00
25024;DHT22;13033;50.936;5.334;2024-03-02T15:01:22;14.70;1.00
25024;DHT22;13033;50.936;5.334;2024-03-02T15:03:51;14.70;1.00
25024;DHT22;13033;50.936;5.334;2024-03-02T15:06:16;14.70;1.00
25024;DHT22;13033;50.936;5.334;2024-03-02T15:08:42;14.60;1.00
25024;DHT22;13033;50.936;5.334;2024-03-02T15:11:09;14.50;1.00
25024;DHT22;13033;50.936;5.334;2024-03-02T15:13:34;14.50;1.00
25024;DHT22;13033;50.936;5.334;2024-03-02T15:16:00;14.30;1.00
25024;DHT22;13033;50.936;5.334;2024-03-02T15:18:26;14.40;1.00
25024;DHT22;13033;50.936;5.334;2024-03-02T15:20:52;14.40;1.00
25024;DHT22;13033;50.936;5.334;2024-03-02T15:23:18;14.20;1.00
25024;DHT22;13033;50.936;5.334;2024-03-02T15:25:44;14.30;1.00
25024;DHT22;13033;50.936;5.334;2024-03-02T15:28:09;14.30;1.00
25024;DHT22;13033;50.936;5.334;2024-03-02T15:30:35;14.30;1.00
25024;DHT22;13033;50.936;5.334;2024-03-02T15:33:01;14.30;1.00
25024;DHT22;13033;50.936;5.334;2024-03-02T15:35:27;14.30;1.00
25024;DHT22;13033;50.936;5.334;2024-03-02T15:37:53;14.40;1.00
25024;DHT22;13033;50.936;5.334;2024-03-02T15:40:18;14.40;1.00
25024;DHT22;13033;50.936;5.334;2024-03-02T15:42:44;14.50;1.00
25024;DHT22;13033;50.936;5.334;2024-03-02T15:45:10;14.50;1.00
25024;DHT22;13033;50.936;5.334;2024-03-02T15:47:35;14.60;1.00
25024;DHT22;13033;50.936;5.334;2024-03-02T15:50:02;14.50;1.00
25024;DHT22;13033;50.936;5.334;2024-03-02T15:52:29;14.50;1.00
25024;DHT22;13033;50.936;5.334;2024-03-02T15:54:55;14.30;1.00
25024;DHT22;13033;50.936;5.334;2024-03-02T15:57:21;14.20;1.00
25024;DHT22;13033;50.936;5.334;2024-03-02T15:59:48;14.10;1.00
25024;DHT22;13033;50.936;5.334;2024-03-02T16:02:15;13.90;1.00